createdAt,value
2019-03-11T00:00:44.577Z,0.00
2019-03-11T00:01:44.567Z,0.00
2019-03-11T00:02:44.555Z,0.00
2019-03-11T00:03:44.544Z,0.00
2019-03-11T00:04:44.535Z,0.00
2019-03-11T00:05:44.523Z,0.00
2019-03-11T00:06:44.512Z,0.00
2019-03-11T00:07:44.507Z,0.00
2019-03-11T00:08:44.492Z,0.00
2019-03-11T00:09:44.482Z,0.00
2019-03-11T00:10:44.470Z,0.00
2019-03-11T00:11:44.459Z,0.00
2019-03-11T00:12:44.448Z,0.00
2019-03-11T00:13:44.437Z,0.00
2019-03-11T00:14:44.428Z,0.00
2019-03-11T00:15:44.417Z,0.00
2019-03-11T00:16:44.405Z,0.00
2019-03-11T00:17:44.402Z,0.00
2019-03-11T00:18:44.383Z,0.00
2019-03-11T00:19:44.380Z,0.00
2019-03-11T00:20:44.365Z,0.00
2019-03-11T00:21:44.366Z,0.00
2019-03-11T00:22:44.342Z,0.00
2019-03-11T00:23:44.335Z,0.00
2019-03-11T00:24:44.322Z,0.00
2019-03-11T00:25:44.313Z,0.00
2019-03-11T00:26:44.303Z,0.00
2019-03-11T00:27:44.290Z,0.00
2019-03-11T00:28:44.278Z,0.00
2019-03-11T00:29:44.270Z,0.00
2019-03-11T00:30:44.258Z,0.00
2019-03-11T00:31:44.246Z,0.00
2019-03-11T00:32:44.240Z,0.00
2019-03-11T00:33:44.229Z,0.00
2019-03-11T00:34:44.213Z,0.00
2019-03-11T00:35:44.205Z,0.00
2019-03-11T00:36:44.192Z,0.00
2019-03-11T00:37:44.181Z,0.00
2019-03-11T00:38:44.173Z,0.00
2019-03-11T00:39:44.169Z,0.00
2019-03-11T00:40:44.152Z,0.00
2019-03-11T00:41:44.141Z,0.00
2019-03-11T00:42:44.130Z,0.00
2019-03-11T00:43:44.119Z,0.00
2019-03-11T00:44:44.108Z,0.00
2019-03-11T00:45:44.105Z,0.00
2019-03-11T00:46:44.089Z,0.00
2019-03-11T00:47:44.076Z,0.00
2019-03-11T00:48:44.065Z,0.00
2019-03-11T00:49:44.061Z,0.00
2019-03-11T00:50:44.062Z,0.00
2019-03-11T00:51:44.043Z,0.00
2019-03-11T00:52:44.140Z,0.00
2019-03-11T00:53:44.014Z,0.00
2019-03-11T00:54:44.001Z,0.00
2019-03-11T00:55:43.992Z,0.00
2019-03-11T00:56:43.982Z,0.00
2019-03-11T00:57:43.981Z,0.00
2019-03-11T00:58:43.961Z,0.00
2019-03-11T00:59:43.950Z,0.00
2019-03-11T01:00:43.939Z,0.00
2019-03-11T01:01:43.930Z,0.00
2019-03-11T01:02:43.920Z,0.00
2019-03-11T01:03:43.906Z,0.00
2019-03-11T01:04:43.898Z,0.00
2019-03-11T01:05:43.885Z,0.00
2019-03-11T01:06:43.877Z,0.00
2019-03-11T01:07:43.866Z,0.00
2019-03-11T01:08:43.854Z,0.00
2019-03-11T01:09:43.851Z,0.00
2019-03-11T01:10:43.836Z,0.00
2019-03-11T01:11:43.822Z,0.00
2019-03-11T01:12:43.810Z,0.00
2019-03-11T01:13:43.800Z,0.00
2019-03-11T01:14:43.793Z,0.00
2019-03-11T01:15:43.782Z,0.00
2019-03-11T01:16:43.768Z,0.00
2019-03-11T01:17:43.758Z,0.00
2019-03-11T01:18:43.747Z,0.00
2019-03-11T01:19:43.736Z,0.00
2019-03-11T01:20:43.728Z,0.00
2019-03-11T01:21:43.715Z,0.00
2019-03-11T01:22:43.704Z,0.00
2019-03-11T01:23:43.693Z,0.00
2019-03-11T01:24:43.683Z,0.00
2019-03-11T01:25:43.673Z,0.00
2019-03-11T01:26:43.665Z,0.00
2019-03-11T01:27:43.652Z,0.00
2019-03-11T01:28:43.640Z,0.00
2019-03-11T01:29:43.633Z,0.00
2019-03-11T01:30:43.621Z,0.00
2019-03-11T01:31:43.610Z,0.00
2019-03-11T01:32:43.606Z,0.00
2019-03-11T01:33:43.590Z,0.00
2019-03-11T01:34:43.578Z,0.00
2019-03-11T01:35:43.568Z,0.00
2019-03-11T01:36:43.556Z,0.00
2019-03-11T01:37:43.550Z,0.00
2019-03-11T01:38:43.543Z,0.00
2019-03-11T01:39:43.524Z,0.00
2019-03-11T01:40:43.513Z,0.00
2019-03-11T01:41:43.503Z,0.00
2019-03-11T01:42:43.494Z,0.00
2019-03-11T01:43:43.482Z,0.00
2019-03-11T01:44:43.478Z,0.00
2019-03-11T01:45:43.462Z,0.00
2019-03-11T01:46:43.452Z,0.00
2019-03-11T01:47:43.439Z,0.00
2019-03-11T01:48:43.432Z,0.00
2019-03-11T01:49:43.419Z,0.00
2019-03-11T01:50:43.408Z,0.00
2019-03-11T01:51:43.397Z,0.00
2019-03-11T01:52:43.387Z,0.00
2019-03-11T01:53:43.377Z,0.00
2019-03-11T01:54:43.366Z,0.00
2019-03-11T01:55:43.356Z,0.00
2019-03-11T01:56:43.345Z,0.00
2019-03-11T01:57:43.410Z,0.00
2019-03-11T01:58:43.332Z,0.00
2019-03-11T01:59:43.327Z,0.00
2019-03-11T02:00:43.301Z,0.00
2019-03-11T02:01:43.293Z,0.00
2019-03-11T02:02:43.279Z,0.00
2019-03-11T02:03:43.271Z,0.00
2019-03-11T02:04:43.259Z,0.00
2019-03-11T02:05:43.250Z,0.00
2019-03-11T02:06:43.235Z,0.00
2019-03-11T02:07:43.228Z,0.00
2019-03-11T02:08:43.216Z,0.00
2019-03-11T02:09:43.204Z,0.00
2019-03-11T02:10:43.196Z,0.00
2019-03-11T02:11:43.183Z,0.00
2019-03-11T02:12:43.174Z,0.00
2019-03-11T02:13:43.166Z,0.00
2019-03-11T02:14:43.153Z,0.00
2019-03-11T02:15:43.140Z,0.00
2019-03-11T02:16:43.130Z,0.00
2019-03-11T02:17:43.124Z,0.00
2019-03-11T02:18:43.110Z,0.00
2019-03-11T02:19:43.101Z,0.00
2019-03-11T02:20:43.090Z,0.00
2019-03-11T02:21:43.077Z,0.00
2019-03-11T02:22:43.066Z,0.00
2019-03-11T02:23:43.058Z,0.00
2019-03-11T02:24:43.046Z,0.00
2019-03-11T02:25:43.039Z,0.00
2019-03-11T02:26:43.028Z,0.00
2019-03-11T02:27:43.014Z,0.00
2019-03-11T02:28:43.005Z,0.00
2019-03-11T02:29:42.997Z,0.00
2019-03-11T02:30:42.982Z,0.00
2019-03-11T02:31:42.977Z,0.00
2019-03-11T02:32:42.964Z,0.00
2019-03-11T02:33:42.953Z,0.00
2019-03-11T02:34:42.942Z,0.00
2019-03-11T02:35:42.934Z,0.00
2019-03-11T02:36:42.922Z,0.00
2019-03-11T02:37:42.926Z,0.00
2019-03-11T02:38:42.902Z,0.00
2019-03-11T02:39:42.886Z,0.00
2019-03-11T02:40:42.880Z,0.00
2019-03-11T02:41:42.867Z,0.00
2019-03-11T02:42:42.859Z,0.00
2019-03-11T02:43:42.849Z,0.00
2019-03-11T02:44:42.834Z,0.00
2019-03-11T02:45:42.837Z,0.00
2019-03-11T02:46:42.836Z,0.00
2019-03-11T02:47:42.802Z,0.00
2019-03-11T02:48:42.791Z,0.00
2019-03-11T02:49:49.535Z,0.00
2019-03-11T02:50:42.772Z,0.00
2019-03-11T02:51:42.762Z,0.00
2019-03-11T02:52:42.750Z,0.00
2019-03-11T02:53:42.745Z,0.00
2019-03-11T02:54:42.727Z,0.00
2019-03-11T02:55:42.717Z,0.00
2019-03-11T02:56:42.707Z,0.00
2019-03-11T02:57:42.697Z,0.00
2019-03-11T02:58:42.686Z,0.00
2019-03-11T02:59:42.678Z,0.00
2019-03-11T03:00:42.667Z,0.00
2019-03-11T03:01:42.653Z,0.00
2019-03-11T03:02:42.644Z,0.00
2019-03-11T03:03:42.634Z,0.00
2019-03-11T03:04:42.625Z,0.00
2019-03-11T03:05:42.625Z,0.00
2019-03-11T03:06:42.603Z,0.00
2019-03-11T03:07:42.595Z,0.00
2019-03-11T03:08:42.580Z,0.00
2019-03-11T03:09:42.571Z,0.00
2019-03-11T03:10:42.559Z,0.00
2019-03-11T03:11:42.562Z,0.00
2019-03-11T03:12:42.548Z,0.00
2019-03-11T03:13:42.529Z,0.00
2019-03-11T03:14:42.524Z,0.00
2019-03-11T03:15:42.508Z,0.00
2019-03-11T03:16:42.499Z,0.00
2019-03-11T03:17:42.491Z,0.00
2019-03-11T03:18:42.475Z,0.00
2019-03-11T03:19:42.465Z,0.00
2019-03-11T03:20:42.454Z,0.00
2019-03-11T03:21:42.444Z,0.00
2019-03-11T03:22:42.432Z,0.00
2019-03-11T03:23:42.423Z,0.00
2019-03-11T03:24:42.414Z,0.00
2019-03-11T03:25:42.419Z,0.00
2019-03-11T03:26:42.414Z,0.00
2019-03-11T03:27:42.466Z,0.00
2019-03-11T03:28:42.373Z,0.00
2019-03-11T03:29:42.359Z,0.00
2019-03-11T03:30:42.358Z,0.00
2019-03-11T03:31:42.339Z,0.00
2019-03-11T03:32:42.342Z,0.00
2019-03-11T03:33:42.320Z,0.00
2019-03-11T03:34:42.310Z,0.00
2019-03-11T03:35:42.294Z,0.00
2019-03-11T03:36:42.290Z,0.00
2019-03-11T03:37:42.279Z,0.00
2019-03-11T03:38:42.263Z,0.00
2019-03-11T03:39:42.254Z,0.00
2019-03-11T03:40:42.244Z,0.00
2019-03-11T03:41:42.233Z,0.00
2019-03-11T03:42:42.282Z,0.00
2019-03-11T03:43:42.255Z,0.00
2019-03-11T03:44:42.202Z,0.00
2019-03-11T03:45:42.193Z,0.00
2019-03-11T03:46:42.185Z,0.00
2019-03-11T03:47:42.170Z,0.00
2019-03-11T03:48:42.257Z,0.00
2019-03-11T03:49:42.155Z,0.00
2019-03-11T03:50:42.140Z,0.00
2019-03-11T03:51:42.133Z,0.00
2019-03-11T03:52:42.120Z,0.00
2019-03-11T03:53:42.107Z,0.00
2019-03-11T03:54:42.106Z,0.00
2019-03-11T03:55:42.087Z,0.00
2019-03-11T03:56:42.073Z,0.00
2019-03-11T03:57:42.068Z,0.00
2019-03-11T03:58:42.053Z,0.00
2019-03-11T03:59:42.044Z,0.00
2019-03-11T04:00:42.031Z,0.00
2019-03-11T04:01:42.021Z,0.00
2019-03-11T04:02:42.011Z,0.00
2019-03-11T04:03:42.002Z,0.00
2019-03-11T04:04:41.991Z,0.00
2019-03-11T04:05:41.980Z,0.00
2019-03-11T04:06:41.982Z,0.00
2019-03-11T04:07:41.976Z,0.00
2019-03-11T04:08:41.947Z,0.00
2019-03-11T04:09:41.946Z,0.00
2019-03-11T04:10:42.049Z,0.00
2019-03-11T04:11:41.925Z,0.00
2019-03-11T04:12:41.906Z,0.00
2019-03-11T04:13:41.894Z,0.00
2019-03-11T04:14:41.920Z,0.00
2019-03-11T04:15:41.903Z,0.00
2019-03-11T04:16:41.864Z,0.00
2019-03-11T04:17:41.859Z,0.00
2019-03-11T04:18:41.841Z,0.00
2019-03-11T04:19:41.835Z,0.00
2019-03-11T04:20:41.822Z,0.00
2019-03-11T04:21:41.813Z,0.00
2019-03-11T04:22:41.801Z,0.00
2019-03-11T04:23:41.789Z,0.00
2019-03-11T04:24:41.780Z,0.00
2019-03-11T04:25:41.769Z,0.00
2019-03-11T04:26:41.759Z,0.00
2019-03-11T04:27:41.745Z,0.00
2019-03-11T04:28:41.739Z,0.00
2019-03-11T04:29:41.726Z,0.00
2019-03-11T04:30:41.716Z,0.00
2019-03-11T04:31:41.704Z,0.00
2019-03-11T04:32:41.694Z,0.00
2019-03-11T04:33:41.683Z,0.00
2019-03-11T04:34:41.675Z,0.00
2019-03-11T04:35:41.665Z,0.00
2019-03-11T04:36:41.653Z,0.00
2019-03-11T04:37:41.640Z,0.00
2019-03-11T04:38:41.635Z,0.00
2019-03-11T04:39:41.618Z,0.00
2019-03-11T04:40:41.611Z,0.00
2019-03-11T04:41:41.602Z,0.00
2019-03-11T04:42:41.587Z,0.00
2019-03-11T04:43:41.576Z,0.00
2019-03-11T04:44:41.577Z,0.00
2019-03-11T04:45:41.557Z,0.00
2019-03-11T04:46:41.544Z,0.00
2019-03-11T04:47:41.539Z,0.00
2019-03-11T04:48:41.524Z,0.00
2019-03-11T04:49:41.516Z,0.00
2019-03-11T04:50:41.508Z,0.00
2019-03-11T04:51:41.493Z,0.00
2019-03-11T04:52:41.483Z,0.00
2019-03-11T04:53:41.478Z,0.00
2019-03-11T04:54:41.461Z,0.00
2019-03-11T04:55:41.460Z,0.00
2019-03-11T04:56:41.438Z,0.00
2019-03-11T04:57:41.431Z,0.00
2019-03-11T04:58:41.418Z,0.00
2019-03-11T04:59:41.408Z,0.00
2019-03-11T05:00:41.398Z,0.00
2019-03-11T05:01:41.390Z,0.00
2019-03-11T05:02:41.375Z,4.00
2019-03-11T05:03:41.367Z,4.00
2019-03-11T05:04:41.355Z,4.00
2019-03-11T05:05:41.355Z,0.00
2019-03-11T05:06:41.334Z,4.00
2019-03-11T05:07:41.326Z,4.00
2019-03-11T05:08:41.311Z,4.00
2019-03-11T05:09:41.301Z,8.00
2019-03-11T05:10:41.293Z,4.00
2019-03-11T05:11:41.280Z,4.00
2019-03-11T05:12:41.272Z,8.00
2019-03-11T05:13:41.268Z,12.00
2019-03-11T05:14:41.258Z,12.00
2019-03-11T05:15:41.238Z,12.00
2019-03-11T05:16:41.228Z,16.00
2019-03-11T05:17:41.217Z,12.00
2019-03-11T05:18:41.208Z,16.00
2019-03-11T05:19:41.199Z,16.00
2019-03-11T05:20:41.185Z,20.00
2019-03-11T05:21:41.175Z,24.00
2019-03-11T05:22:41.164Z,28.00
2019-03-11T05:23:41.181Z,28.00
2019-03-11T05:24:41.143Z,28.00
2019-03-11T05:25:41.139Z,32.00
2019-03-11T05:26:41.124Z,36.00
2019-03-11T05:27:41.112Z,40.00
2019-03-11T05:28:41.107Z,40.00
2019-03-11T05:29:41.090Z,48.00
2019-03-11T05:30:41.083Z,52.00
2019-03-11T05:31:41.069Z,56.00
2019-03-11T05:32:41.059Z,68.00
2019-03-11T05:33:41.049Z,72.00
2019-03-11T05:34:41.040Z,76.00
2019-03-11T05:35:41.033Z,80.00
2019-03-11T05:36:41.022Z,84.00
2019-03-11T05:37:41.008Z,88.00
2019-03-11T05:38:40.994Z,96.00
2019-03-11T05:39:40.989Z,108.00
2019-03-11T05:40:40.977Z,120.00
2019-03-11T05:41:40.965Z,136.00
2019-03-11T05:42:40.953Z,156.00
2019-03-11T05:43:40.943Z,164.00
2019-03-11T05:44:40.931Z,172.00
2019-03-11T05:45:40.922Z,188.00
2019-03-11T05:46:40.912Z,208.00
2019-03-11T05:47:40.902Z,216.00
2019-03-11T05:48:40.892Z,240.00
2019-03-11T05:49:40.877Z,260.00
2019-03-11T05:50:40.867Z,284.00
2019-03-11T05:51:40.856Z,312.00
2019-03-11T05:52:40.850Z,336.00
2019-03-11T05:53:40.838Z,352.00
2019-03-11T05:54:40.824Z,388.00
2019-03-11T05:55:40.837Z,448.00
2019-03-11T05:56:40.805Z,500.00
2019-03-11T05:57:40.797Z,544.00
2019-03-11T05:58:40.789Z,604.00
2019-03-11T05:59:40.772Z,672.00
2019-03-11T06:00:40.780Z,700.00
2019-03-11T06:01:40.750Z,684.00
2019-03-11T06:02:40.742Z,616.00
2019-03-11T06:03:40.731Z,568.00
2019-03-11T06:04:40.720Z,592.00
2019-03-11T06:05:40.712Z,592.00
2019-03-11T06:06:40.697Z,644.00
2019-03-11T06:07:42.571Z,752.00
2019-03-11T06:08:40.677Z,904.00
2019-03-11T06:09:40.668Z,996.00
2019-03-11T06:10:40.656Z,936.00
2019-03-11T06:11:40.652Z,1064.00
2019-03-11T06:12:40.634Z,1252.00
2019-03-11T06:13:40.632Z,1264.00
2019-03-11T06:14:40.615Z,1220.00
2019-03-11T06:15:40.609Z,1332.00
2019-03-11T06:16:40.589Z,1384.00
2019-03-11T06:17:40.698Z,1700.00
2019-03-11T06:18:40.569Z,2000.00
2019-03-11T06:19:40.652Z,2232.00
2019-03-11T06:20:40.550Z,2364.00
2019-03-11T06:21:40.538Z,2468.00
2019-03-11T06:22:40.528Z,2612.00
2019-03-11T06:23:40.554Z,2668.00
2019-03-11T06:24:40.590Z,2668.00
2019-03-11T06:25:40.499Z,2684.00
2019-03-11T06:26:40.487Z,2680.00
2019-03-11T06:27:40.475Z,2664.00
2019-03-11T06:28:40.464Z,2628.00
2019-03-11T06:29:40.453Z,2664.00
2019-03-11T06:30:40.443Z,2716.00
2019-03-11T06:31:40.431Z,2820.00
2019-03-11T06:32:40.422Z,3004.00
2019-03-11T06:33:40.760Z,3188.00
2019-03-11T06:34:40.409Z,3344.00
2019-03-11T06:35:40.715Z,3464.00
2019-03-11T06:36:40.381Z,3580.00
2019-03-11T06:37:40.368Z,3700.00
2019-03-11T06:38:40.358Z,3856.00
2019-03-11T06:39:40.403Z,4016.00
2019-03-11T06:40:40.339Z,4176.00
2019-03-11T06:41:40.327Z,4352.00
2019-03-11T06:42:40.316Z,4520.00
2019-03-11T06:43:40.403Z,4676.00
2019-03-11T06:44:40.294Z,4828.00
2019-03-11T06:45:40.284Z,4972.00
2019-03-11T06:46:40.279Z,5108.00
2019-03-11T06:47:40.265Z,5224.00
2019-03-11T06:48:40.250Z,5312.00
2019-03-11T06:49:40.240Z,5400.00
2019-03-11T06:50:40.231Z,5424.00
2019-03-11T06:51:40.227Z,5712.00
2019-03-11T06:52:40.212Z,6012.00
2019-03-11T06:53:40.199Z,6556.00
2019-03-11T06:54:40.188Z,6816.00
2019-03-11T06:55:40.181Z,6556.00
2019-03-11T06:56:40.167Z,6748.00
2019-03-11T06:57:40.178Z,7504.00
2019-03-11T06:58:40.151Z,8280.00
2019-03-11T06:59:40.137Z,8876.00
2019-03-11T07:00:40.127Z,7384.00
2019-03-11T07:01:40.115Z,9016.00
2019-03-11T07:02:40.107Z,8360.00
2019-03-11T07:03:40.093Z,7488.00
2019-03-11T07:04:40.083Z,7168.00
2019-03-11T07:05:40.071Z,7660.00
2019-03-11T07:06:40.061Z,8080.00
2019-03-11T07:07:40.049Z,7496.00
2019-03-11T07:08:40.040Z,7964.00
2019-03-11T07:09:40.032Z,7932.00
2019-03-11T07:10:40.044Z,7240.00
2019-03-11T07:11:40.006Z,6744.00
2019-03-11T07:12:39.999Z,6816.00
2019-03-11T07:13:39.986Z,6940.00
2019-03-11T07:14:39.977Z,7112.00
2019-03-11T07:15:39.966Z,7844.00
2019-03-11T07:16:39.954Z,8628.00
2019-03-11T07:17:39.947Z,9524.00
2019-03-11T07:18:39.939Z,8080.00
2019-03-11T07:19:39.923Z,9436.00
2019-03-11T07:20:39.913Z,10260.00
2019-03-11T07:21:39.904Z,13092.00
2019-03-11T07:22:39.892Z,15008.00
2019-03-11T07:23:39.884Z,12732.00
2019-03-11T07:24:39.869Z,13604.00
2019-03-11T07:25:39.861Z,14200.00
2019-03-11T07:26:39.926Z,15328.00
2019-03-11T07:27:39.842Z,21024.00
2019-03-11T07:28:39.833Z,24256.00
2019-03-11T07:29:39.816Z,17056.00
2019-03-11T07:30:39.806Z,7924.00
2019-03-11T07:31:39.796Z,5056.00
2019-03-11T07:32:39.784Z,5916.00
2019-03-11T07:33:39.774Z,7692.00
2019-03-11T07:34:39.763Z,9608.00
2019-03-11T07:35:39.753Z,10972.00
2019-03-11T07:36:39.742Z,10300.00
2019-03-11T07:37:39.734Z,10980.00
2019-03-11T07:38:39.722Z,8976.00
2019-03-11T07:39:39.711Z,7244.00
2019-03-11T07:40:39.699Z,5864.00
2019-03-11T07:41:39.692Z,5952.00
2019-03-11T07:42:39.679Z,5944.00
2019-03-11T07:43:39.668Z,6048.00
2019-03-11T07:44:39.661Z,6604.00
2019-03-11T07:45:39.648Z,7364.00
2019-03-11T07:46:39.637Z,10256.00
2019-03-11T07:47:39.629Z,11748.00
2019-03-11T07:48:39.614Z,13396.00
2019-03-11T07:49:39.607Z,15204.00
2019-03-11T07:50:39.596Z,14300.00
2019-03-11T07:51:39.582Z,12144.00
2019-03-11T07:52:39.572Z,11108.00
2019-03-11T07:53:39.563Z,13172.00
2019-03-11T07:54:39.554Z,17664.00
2019-03-11T07:55:39.565Z,21408.00
2019-03-11T07:56:39.529Z,20672.00
2019-03-11T07:57:39.523Z,16352.00
2019-03-11T07:58:39.508Z,19424.00
2019-03-11T07:59:39.499Z,18656.00
2019-03-11T08:00:39.487Z,19680.00
2019-03-11T08:01:39.476Z,14480.00
2019-03-11T08:02:39.603Z,10728.00
2019-03-11T08:03:39.454Z,11488.00
2019-03-11T08:04:39.443Z,10352.00
2019-03-11T08:05:39.432Z,6716.00
2019-03-11T08:06:39.433Z,4784.00
2019-03-11T08:07:39.419Z,4400.00
2019-03-11T08:08:39.400Z,5104.00
2019-03-11T08:09:39.403Z,4848.00
2019-03-11T08:10:39.387Z,4656.00
2019-03-11T08:11:39.373Z,4932.00
2019-03-11T08:12:39.356Z,4760.00
2019-03-11T08:13:39.348Z,4912.00
2019-03-11T08:14:39.338Z,4504.00
2019-03-11T08:15:39.325Z,3472.00
2019-03-11T08:16:39.314Z,4644.00
2019-03-11T08:17:39.305Z,5400.00
2019-03-11T08:18:39.298Z,4460.00
2019-03-11T08:19:39.282Z,4436.00
2019-03-11T08:20:39.272Z,4940.00
2019-03-11T08:21:39.262Z,4004.00
2019-03-11T08:22:39.256Z,4400.00
2019-03-11T08:23:39.240Z,3768.00
2019-03-11T08:24:39.231Z,3664.00
2019-03-11T08:25:39.221Z,3284.00
2019-03-11T08:26:39.207Z,3176.00
2019-03-11T08:27:39.198Z,3544.00
2019-03-11T08:28:39.191Z,3432.00
2019-03-11T08:29:39.176Z,3668.00
2019-03-11T08:30:39.165Z,3992.00
2019-03-11T08:31:39.164Z,4144.00
2019-03-11T08:32:39.146Z,3736.00
2019-03-11T08:33:39.134Z,3692.00
2019-03-11T08:34:39.124Z,3752.00
2019-03-11T08:35:39.117Z,4480.00
2019-03-11T08:36:39.107Z,4596.00
2019-03-11T08:37:39.096Z,4392.00
2019-03-11T08:38:39.081Z,4304.00
2019-03-11T08:39:39.069Z,3896.00
2019-03-11T08:40:39.059Z,3716.00
2019-03-11T08:41:39.053Z,4488.00
2019-03-11T08:42:39.038Z,4040.00
2019-03-11T08:43:39.029Z,4352.00
2019-03-11T08:44:39.020Z,5080.00
2019-03-11T08:45:39.005Z,6184.00
2019-03-11T08:46:38.996Z,4692.00
2019-03-11T08:47:38.988Z,4308.00
2019-03-11T08:48:38.974Z,4428.00
2019-03-11T08:49:38.966Z,5188.00
2019-03-11T08:50:38.960Z,5508.00
2019-03-11T08:51:38.943Z,5656.00
2019-03-11T08:52:38.933Z,4844.00
2019-03-11T08:53:38.926Z,4612.00
2019-03-11T08:54:38.910Z,4864.00
2019-03-11T08:55:38.900Z,6504.00
2019-03-11T08:56:38.890Z,7808.00
2019-03-11T08:57:40.369Z,6480.00
2019-03-11T08:58:38.868Z,5892.00
2019-03-11T08:59:38.858Z,6468.00
2019-03-11T09:00:38.847Z,6084.00
2019-03-11T09:01:38.836Z,4784.00
2019-03-11T09:02:38.838Z,4688.00
2019-03-11T09:03:38.820Z,5468.00
2019-03-11T09:04:38.803Z,5728.00
2019-03-11T09:05:38.799Z,5752.00
2019-03-11T09:06:38.788Z,4624.00
2019-03-11T09:07:38.778Z,4280.00
2019-03-11T09:08:38.763Z,5004.00
2019-03-11T09:09:38.756Z,4996.00
2019-03-11T09:10:38.742Z,4332.00
2019-03-11T09:11:38.732Z,4188.00
2019-03-11T09:12:38.726Z,3800.00
2019-03-11T09:13:38.715Z,3360.00
2019-03-11T09:14:38.698Z,3036.00
2019-03-11T09:15:38.687Z,2680.00
2019-03-11T09:16:38.677Z,2760.00
2019-03-11T09:17:38.668Z,3260.00
2019-03-11T09:18:38.656Z,3520.00
2019-03-11T09:19:38.646Z,3848.00
2019-03-11T09:20:38.634Z,4548.00
2019-03-11T09:21:38.739Z,5308.00
2019-03-11T09:22:38.615Z,4748.00
2019-03-11T09:23:38.602Z,3444.00
2019-03-11T09:24:38.595Z,3492.00
2019-03-11T09:25:38.584Z,3216.00
2019-03-11T09:26:38.570Z,2360.00
2019-03-11T09:27:38.585Z,2252.00
2019-03-11T09:28:38.551Z,2292.00
2019-03-11T09:29:38.567Z,2080.00
2019-03-11T09:30:38.533Z,2288.00
2019-03-11T09:31:38.518Z,2708.00
2019-03-11T09:32:38.507Z,3056.00
2019-03-11T09:33:38.497Z,2784.00
2019-03-11T09:34:38.486Z,2612.00
2019-03-11T09:35:38.475Z,2168.00
2019-03-11T09:36:38.475Z,2588.00
2019-03-11T09:37:38.454Z,4240.00
2019-03-11T09:38:38.448Z,4772.00
2019-03-11T09:39:38.432Z,4132.00
2019-03-11T09:40:38.424Z,4480.00
2019-03-11T09:41:38.415Z,5756.00
2019-03-11T09:42:38.404Z,6492.00
2019-03-11T09:43:38.389Z,7288.00
2019-03-11T09:44:38.379Z,7020.00
2019-03-11T09:45:38.368Z,6100.00
2019-03-11T09:46:38.758Z,4584.00
2019-03-11T09:47:38.347Z,4812.00
2019-03-11T09:48:38.339Z,6100.00
2019-03-11T09:49:38.327Z,8472.00
2019-03-11T09:50:38.316Z,11488.00
2019-03-11T09:51:38.307Z,13372.00
2019-03-11T09:52:38.295Z,14780.00
2019-03-11T09:53:38.285Z,13008.00
2019-03-11T09:54:38.275Z,11992.00
2019-03-11T09:55:38.267Z,10048.00
2019-03-11T09:56:43.292Z,9112.00
2019-03-11T09:57:39.243Z,9024.00
2019-03-11T09:58:38.232Z,9816.00
2019-03-11T09:59:38.221Z,9300.00
2019-03-11T10:00:38.209Z,9192.00
2019-03-11T10:01:38.200Z,9968.00
2019-03-11T10:02:38.188Z,10632.00
2019-03-11T10:03:38.177Z,12044.00
2019-03-11T10:04:38.166Z,14940.00
2019-03-11T10:05:38.161Z,16292.00
2019-03-11T10:06:38.146Z,15744.00
2019-03-11T10:07:38.139Z,14356.00
2019-03-11T10:08:38.123Z,14368.00
2019-03-11T10:09:38.116Z,13564.00
2019-03-11T10:10:38.105Z,12876.00
2019-03-11T10:11:38.092Z,12080.00
2019-03-11T10:12:38.080Z,12688.00
2019-03-11T10:13:38.071Z,12748.00
2019-03-11T10:14:38.062Z,10880.00
2019-03-11T10:15:38.062Z,8412.00
2019-03-11T10:16:38.042Z,8164.00
2019-03-11T10:17:38.034Z,7824.00
2019-03-11T10:18:38.016Z,8512.00
2019-03-11T10:19:38.060Z,10420.00
2019-03-11T10:20:38.000Z,8456.00
2019-03-11T10:21:37.987Z,7252.00
2019-03-11T10:22:37.978Z,6320.00
2019-03-11T10:23:37.962Z,7616.00
2019-03-11T10:24:37.952Z,8436.00
2019-03-11T10:25:37.942Z,8444.00
2019-03-11T10:26:37.929Z,8536.00
2019-03-11T10:27:37.922Z,9620.00
2019-03-11T10:28:37.908Z,11228.00
2019-03-11T10:29:37.899Z,14116.00
2019-03-11T10:30:37.891Z,14520.00
2019-03-11T10:31:37.881Z,10488.00
2019-03-11T10:32:37.865Z,9000.00
2019-03-11T10:33:37.854Z,11544.00
2019-03-11T10:34:37.847Z,12356.00
2019-03-11T10:35:37.837Z,11560.00
2019-03-11T10:36:37.822Z,8552.00
2019-03-11T10:37:37.825Z,6592.00
2019-03-11T10:38:37.800Z,5772.00
2019-03-11T10:39:37.789Z,7500.00
2019-03-11T10:40:37.782Z,7276.00
2019-03-11T10:41:37.768Z,7340.00
2019-03-11T10:42:37.756Z,7576.00
2019-03-11T10:43:37.749Z,8220.00
2019-03-11T10:44:37.735Z,7888.00
2019-03-11T10:45:37.725Z,7192.00
2019-03-11T10:46:37.714Z,9148.00
2019-03-11T10:47:37.702Z,12220.00
2019-03-11T10:48:37.730Z,13300.00
2019-03-11T10:49:37.688Z,15240.00
2019-03-11T10:50:37.671Z,20320.00
2019-03-11T10:51:37.663Z,20256.00
2019-03-11T10:52:37.648Z,27328.00
2019-03-11T10:53:37.642Z,26400.00
2019-03-11T10:54:37.628Z,22208.00
2019-03-11T10:55:37.617Z,26464.00
2019-03-11T10:56:37.608Z,26272.00
2019-03-11T10:57:37.599Z,23776.00
2019-03-11T10:58:37.584Z,21632.00
2019-03-11T10:59:37.579Z,24320.00
2019-03-11T11:00:37.567Z,19680.00
2019-03-11T11:01:37.556Z,25792.00
2019-03-11T11:02:37.545Z,23936.00
2019-03-11T11:03:37.532Z,20128.00
2019-03-11T11:04:37.522Z,25472.00
2019-03-11T11:05:37.510Z,21344.00
2019-03-11T11:06:37.501Z,27584.00
2019-03-11T11:07:37.487Z,20576.00
2019-03-11T11:08:37.478Z,25664.00
2019-03-11T11:09:37.469Z,20224.00
2019-03-11T11:10:37.456Z,21600.00
2019-03-11T11:11:37.451Z,22144.00
2019-03-11T11:12:37.436Z,19168.00
2019-03-11T11:13:37.425Z,20896.00
2019-03-11T11:14:37.414Z,19424.00
2019-03-11T11:15:37.412Z,27232.00
2019-03-11T11:16:37.392Z,18560.00
2019-03-11T11:17:37.385Z,14064.00
2019-03-11T11:18:37.371Z,12728.00
2019-03-11T11:19:37.360Z,11748.00
2019-03-11T11:20:37.350Z,9276.00
2019-03-11T11:21:37.337Z,7984.00
2019-03-11T11:22:37.327Z,7884.00
2019-03-11T11:23:37.316Z,8196.00
2019-03-11T11:24:37.306Z,6552.00
2019-03-11T11:25:37.296Z,5804.00
2019-03-11T11:26:37.285Z,5748.00
2019-03-11T11:27:37.276Z,5448.00
2019-03-11T11:28:37.262Z,5008.00
2019-03-11T11:29:37.254Z,5068.00
2019-03-11T11:30:37.240Z,5464.00
2019-03-11T11:31:37.230Z,4816.00
2019-03-11T11:32:37.219Z,3840.00
2019-03-11T11:33:37.210Z,4584.00
2019-03-11T11:34:37.199Z,4888.00
2019-03-11T11:35:37.187Z,4868.00
2019-03-11T11:36:37.179Z,5252.00
2019-03-11T11:37:37.167Z,5612.00
2019-03-11T11:38:37.156Z,5488.00
2019-03-11T11:39:37.149Z,4864.00
2019-03-11T11:40:37.135Z,3580.00
2019-03-11T11:41:37.132Z,2960.00
2019-03-11T11:42:37.112Z,3252.00
2019-03-11T11:43:37.103Z,3656.00
2019-03-11T11:44:37.094Z,3716.00
2019-03-11T11:45:37.087Z,3480.00
2019-03-11T11:46:37.070Z,3024.00
2019-03-11T11:47:37.060Z,2704.00
2019-03-11T11:48:37.049Z,2696.00
2019-03-11T11:49:37.040Z,3528.00
2019-03-11T11:50:37.029Z,5516.00
2019-03-11T11:51:37.018Z,6032.00
2019-03-11T11:52:37.007Z,4968.00
2019-03-11T11:53:36.998Z,4308.00
2019-03-11T11:54:36.986Z,3772.00
2019-03-11T11:55:37.208Z,4400.00
2019-03-11T11:56:36.967Z,6040.00
2019-03-11T11:57:36.953Z,6276.00
2019-03-11T11:58:36.945Z,5732.00
2019-03-11T11:59:36.938Z,5812.00
2019-03-11T12:00:36.923Z,5532.00
2019-03-11T12:01:36.910Z,5016.00
2019-03-11T12:02:36.901Z,4752.00
2019-03-11T12:03:36.889Z,4672.00
2019-03-11T12:04:36.882Z,4760.00
2019-03-11T12:05:36.869Z,4692.00
2019-03-11T12:06:36.859Z,4804.00
2019-03-11T12:07:36.847Z,5200.00
2019-03-11T12:08:36.857Z,5312.00
2019-03-11T12:09:36.834Z,5468.00
2019-03-11T12:10:36.815Z,5704.00
2019-03-11T12:11:36.803Z,6112.00
2019-03-11T12:12:36.794Z,6072.00
2019-03-11T12:13:36.783Z,6160.00
2019-03-11T12:14:36.776Z,6464.00
2019-03-11T12:15:36.764Z,6200.00
2019-03-11T12:16:36.754Z,6308.00
2019-03-11T12:17:36.742Z,5852.00
2019-03-11T12:18:36.734Z,5120.00
2019-03-11T12:19:36.719Z,4740.00
2019-03-11T12:20:36.712Z,5120.00
2019-03-11T12:21:36.699Z,5812.00
2019-03-11T12:22:36.687Z,7056.00
2019-03-11T12:23:45.922Z,7932.00
2019-03-11T12:24:37.665Z,9008.00
2019-03-11T12:25:36.656Z,9948.00
2019-03-11T12:26:36.646Z,9236.00
2019-03-11T12:27:36.641Z,8308.00
2019-03-11T12:28:36.625Z,9240.00
2019-03-11T12:29:36.613Z,8764.00
2019-03-11T12:30:36.602Z,8892.00
2019-03-11T12:31:36.593Z,8284.00
2019-03-11T12:32:36.584Z,8080.00
2019-03-11T12:33:36.570Z,8096.00
2019-03-11T12:34:36.561Z,8040.00